Yuedian 58 — BYFE — position and weather

sailwx.info

Track history (hours):
 
Tides and Currents Weather Stations Pressure Air Temp Water Temp Dewpoint Dewpoint Depression Visibility Wind Speed Wind Dir Waves Ship Positions

Yuedian 58

Last reported at 2015-May-04 21:31 UTC. Time now 2015-May-05 04:12 UTC.
Position N 38°41' E 120°09'.

Length 190 m; draft 7 m.

Type: Cargo ship. MMSI: 414008000.

Date/timePositionNaut miles runAvg speedWind from/ knotsBaromVisibWave heightAir tempDewpointWater temp
2015-May-04 21:31N 38°41' E 120°09'4911.5
2015-May-04 17:17N 38°30' E 121°09'1115.1
2015-May-04 16:33N 38°24' E 121°22'1313.0
2015-May-04 15:33N 38°17' E 121°36'5713.7
2015-May-04 11:24N 37°47' E 122°37'1214.0
2015-May-04 10:34N 37°39' E 122°47'1514.2
2015-May-04 09:31N 37°28' E 123°00'49912.1
2015-May-02 16:17N 29°10' E 122°38'62113.5
2015-Apr-30 18:10N 21°55' E 114°28'35 9.7
2015-Apr-30 14:33N 22°02' E 113°51'1211.8
2015-Apr-30 13:33N 22°13' E 113°48'1712.4
2015-Apr-30 12:13N 22°30' E 113°45'811.4
2015-Apr-30 11:29N 22°38' E 113°42'7 7.7
2015-Apr-30 10:33N 22°45' E 113°40'0 0.0
2015-Apr-29 23:28N 22°45' E 113°40'0 0.0
2015-Apr-29 19:04N 22°45' E 113°40'0 0.0
2015-Apr-29 16:28N 22°45' E 113°40'0 0.0
2015-Apr-29 13:32N 22°45' E 113°40'0 0.0
2015-Apr-29 12:31N 22°45' E 113°40'0 0.0
2015-Apr-29 10:32N 22°45' E 113°40'0 0.0
2015-Apr-29 07:14N 22°45' E 113°40'0 0.0
2015-Apr-29 02:14N 22°45' E 113°40'0 0.0
2015-Apr-29 01:26N 22°45' E 113°40'0 0.0
2015-Apr-28 23:14N 22°45' E 113°40'0 0.0
2015-Apr-28 21:32N 22°45' E 113°40'0 0.0
2015-Apr-28 20:08N 22°45' E 113°40'0 0.0
2015-Apr-28 18:08N 22°45' E 113°40'0 0.0
2015-Apr-28 17:20N 22°45' E 113°40'0 0.0
2015-Apr-28 16:26N 22°45' E 113°40'0 0.0
2015-Apr-28 06:30N 22°45' E 113°40'0 0.0
2015-Apr-28 04:18N 22°45' E 113°40'0 0.0
2015-Apr-28 03:18N 22°45' E 113°40'0 0.0
2015-Apr-28 02:24N 22°45' E 113°40'0 0.0
2015-Apr-28 00:21N 22°45' E 113°40'2 2.7
2015-Apr-27 23:32N 22°43' E 113°41'19 9.7
2015-Apr-27 21:33N 22°24' E 113°46'1110.9
2015-Apr-27 20:34N 22°13' E 113°49'14 9.8
2015-Apr-27 19:10N 22°00' E 113°52'  
Track history (hours):
 
Tides and Currents Weather Stations Pressure Air Temp Water Temp Dewpoint Dewpoint Depression Visibility Wind Speed Wind Dir Waves Ship Positions

Yuedian 58

Last reported at 2015-May-04 21:31 UTC. Time now 2015-May-05 04:12 UTC.
Position N 38°41' E 120°09'.

Length 190 m; draft 7 m.

Type: Cargo ship. MMSI: 414008000.

Date/timePositionNaut miles runAvg speedWind from/ knotsBaromVisibWave heightAir tempDewpointWater temp
2015-May-04 21:31N 38°41' E 120°09'4911.5
2015-May-04 17:17N 38°30' E 121°09'1115.1
2015-May-04 16:33N 38°24' E 121°22'1313.0
2015-May-04 15:33N 38°17' E 121°36'5713.7
2015-May-04 11:24N 37°47' E 122°37'1214.0
2015-May-04 10:34N 37°39' E 122°47'1514.2
2015-May-04 09:31N 37°28' E 123°00'49912.1
2015-May-02 16:17N 29°10' E 122°38'62113.5
2015-Apr-30 18:10N 21°55' E 114°28'35 9.7
2015-Apr-30 14:33N 22°02' E 113°51'1211.8
2015-Apr-30 13:33N 22°13' E 113°48'1712.4
2015-Apr-30 12:13N 22°30' E 113°45'811.4
2015-Apr-30 11:29N 22°38' E 113°42'7 7.7
2015-Apr-30 10:33N 22°45' E 113°40'0 0.0
2015-Apr-29 23:28N 22°45' E 113°40'0 0.0
2015-Apr-29 19:04N 22°45' E 113°40'0 0.0
2015-Apr-29 16:28N 22°45' E 113°40'0 0.0
2015-Apr-29 13:32N 22°45' E 113°40'0 0.0
2015-Apr-29 12:31N 22°45' E 113°40'0 0.0
2015-Apr-29 10:32N 22°45' E 113°40'0 0.0
2015-Apr-29 07:14N 22°45' E 113°40'0 0.0
2015-Apr-29 02:14N 22°45' E 113°40'0 0.0
2015-Apr-29 01:26N 22°45' E 113°40'0 0.0
2015-Apr-28 23:14N 22°45' E 113°40'0 0.0
2015-Apr-28 21:32N 22°45' E 113°40'0 0.0
2015-Apr-28 20:08N 22°45' E 113°40'0 0.0
2015-Apr-28 18:08N 22°45' E 113°40'0 0.0
2015-Apr-28 17:20N 22°45' E 113°40'0 0.0
2015-Apr-28 16:26N 22°45' E 113°40'0 0.0
2015-Apr-28 06:30N 22°45' E 113°40'0 0.0
2015-Apr-28 04:18N 22°45' E 113°40'0 0.0
2015-Apr-28 03:18N 22°45' E 113°40'0 0.0
2015-Apr-28 02:24N 22°45' E 113°40'0 0.0
2015-Apr-28 00:21N 22°45' E 113°40'2 2.7
2015-Apr-27 23:32N 22°43' E 113°41'19 9.7
2015-Apr-27 21:33N 22°24' E 113°46'1110.9
2015-Apr-27 20:34N 22°13' E 113°49'14 9.8
2015-Apr-27 19:10N 22°00' E 113°52'  

Dump ship's entire track history